This is the latest recevied weather packets stored in our database for station/object KK7UNF. If no packets are shown the sender has not sent any weather packets the latest 10 day(s).
| Time | Temp. | Humidity | Pressure | Rain* | Wind** | Luminosity | Snow |
|---|---|---|---|---|---|---|---|
| 1777579241 | 21.67° C | 63% | 1019.2 hPa | 0 mm | - | 425 W/m² | - |
| 1777578345 | 21.11° C | 64% | 1019.3 hPa | 0 mm | - | 714 W/m² | - |
| 1777576540 | 19.44° C | 72% | 1019.7 hPa | 0 mm | - | 107 W/m² | - |
| 1777575644 | 18.33° C | 75% | 1019.9 hPa | 0 mm | - | 95 W/m² | - |
| 1777568440 | 11.67° C | 95% | 1021.2 hPa | 0 mm | - | 63 W/m² | - |
| 1777567540 | 11.11° C | 96% | 1021.4 hPa | 0 mm | - | 62 W/m² | - |
| 1777563940 | 8.89° C | 97% | 1022 hPa | 0 mm | - | 49 W/m² | - |
| 1777560349 | 7.78° C | 96% | 1021.9 hPa | 0 mm | - | 35 W/m² | - |
| 1777554941 | 7.22° C | 93% | 1022 hPa | 0 mm | - | 0 W/m² | - |
| 1777553141 | 7.22° C | 93% | 1021.9 hPa | 0 mm | - | 0 W/m² | - |
| 1777552241 | 7.22° C | 93% | 1021.9 hPa | 0 mm | - | 0 W/m² | - |
| 1777551344 | 7.22° C | 93% | 1022.1 hPa | 0 mm | - | 0 W/m² | - |
| 1777544151 | 8.89° C | 91% | 1022.1 hPa | 0 mm | - | 0 W/m² | - |
| 1777536940 | 10° C | 87% | 1022.7 hPa | 0 mm | - | 0 W/m² | - |
| 1777529740 | 12.22° C | 82% | 1022.8 hPa | 0 mm | - | 0 W/m² | - |
| 1777527043 | 12.78° C | 79% | 1023.1 hPa | 0 mm | - | 0 W/m² | - |
| 1777524345 | 13.33° C | 77% | 1023.1 hPa | 0 mm | - | 0 W/m² | - |
| 1777523445 | 13.89° C | 77% | 1023 hPa | 0 mm | - | 0 W/m² | - |
| 1777520737 | 15° C | 74% | 1022.6 hPa | 0 mm | - | 0 W/m² | - |
| 1777504547 | 18.89° C | 61% | 1023 hPa | 0 mm | - | 100 W/m² | - |
| 1777500941 | 19.44° C | 62% | 1023.5 hPa | 0 mm | - | 297 W/m² | - |
| 1777497340 | 20° C | 60% | 1023.8 hPa | 0 mm | - | 710 W/m² | - |
| 1777493743 | 18.89° C | 62% | 1024.3 hPa | 0 mm | - | 758 W/m² | - |
| 1777489246 | 15° C | 73% | 1024.7 hPa | 0 mm | - | 63 W/m² | - |
| 1777488357 | 14.44° C | 74% | 1024.9 hPa | 0 mm | - | 62 W/m² | - |
* Rain latest hour (hover to see other rain measurements)
** Current wind speed in m/s (hover to see current wind gust speed)